Time,TemperatureF,DewpointF,PressureIn,WindDirection,WindDirectionDegrees,WindSpeedMPH,WindSpeedGustMPH,Humidity,HourlyPrecipIn,Conditions,Clouds,dailyrainin,SoftwareType,DateUTC
2013-01-06 15:12:00,48.0,-99.9,30.17,NE,42,17.0,19.0,-999,-99.99,,,-99.99,,2013-01-06 21:12:00,
2013-01-06 15:33:00,49.0,-99.9,30.18,NNE,28,15.0,17.0,-999,-99.99,,,-99.99,,2013-01-06 21:33:00,
2013-01-06 15:43:00,49.0,-99.9,30.18,NNE,30,14.0,16.0,-999,-99.99,,,-99.99,,2013-01-06 21:43:00,
2013-01-06 15:53:00,49.0,-99.9,30.18,NNE,24,14.0,16.0,-999,-99.99,,,-99.99,,2013-01-06 21:53:00,
2013-01-06 16:02:00,49.0,-99.9,30.18,NNE,17,15.0,16.0,-999,-99.99,,,-99.99,,2013-01-06 22:02:00,
2013-01-06 16:12:00,49.0,-99.9,30.18,NNE,19,15.0,17.0,-999,-99.99,,,-99.99,,2013-01-06 22:12:00,
2013-01-06 16:23:00,49.0,-99.9,30.17,NNE,22,15.0,16.0,-999,-99.99,,,-99.99,,2013-01-06 22:23:00,
2013-01-06 16:33:00,49.0,-99.9,30.17,NNE,21,16.0,17.0,-999,-99.99,,,-99.99,,2013-01-06 22:33:00,
2013-01-06 16:43:00,49.0,-99.9,30.17,NNE,17,17.0,19.0,-999,-99.99,,,-99.99,,2013-01-06 22:43:00,
2013-01-06 16:53:00,49.0,-99.9,30.18,North,11,20.0,21.0,-999,-99.99,,,-99.99,,2013-01-06 22:53:00,
2013-01-06 17:02:00,49.0,-99.9,30.18,NNE,13,18.0,20.0,-999,-99.99,,,-99.99,,2013-01-06 23:02:00,
2013-01-06 17:13:00,49.0,-99.9,30.19,North,8,17.0,19.0,-999,-99.99,,,-99.99,,2013-01-06 23:13:00,
2013-01-06 17:22:00,49.0,-99.9,30.19,NNE,12,19.0,20.0,-999,-99.99,,,-99.99,,2013-01-06 23:22:00,
2013-01-06 17:33:00,49.0,-99.9,30.19,NNE,12,18.0,20.0,-999,-99.99,,,-99.99,,2013-01-06 23:33:00,
2013-01-06 17:43:00,49.0,-99.9,30.19,NNE,12,19.0,20.0,-999,-99.99,,,-99.99,,2013-01-06 23:43:00,
2013-01-06 17:53:00,49.0,-99.9,30.20,North,11,19.0,20.0,-999,-99.99,,,-99.99,,2013-01-06 23:53:00,
2013-01-06 18:03:00,49.0,-99.9,30.20,North,10,19.0,21.0,-999,-99.99,,,-99.99,,2013-01-07 00:03:00,
2013-01-06 18:12:00,49.0,-99.9,30.21,North,5,17.0,19.0,-999,-99.99,,,-99.99,,2013-01-07 00:12:00,
2013-01-06 18:23:00,50.0,-99.9,30.21,North,8,16.0,18.0,-999,-99.99,,,-99.99,,2013-01-07 00:23:00,
2013-01-06 18:33:00,50.0,-99.9,30.21,North,5,15.0,17.0,-999,-99.99,,,-99.99,,2013-01-07 00:33:00,
2013-01-06 18:43:00,50.0,-99.9,30.21,North,10,15.0,17.0,-999,-99.99,,,-99.99,,2013-01-07 00:43:00,
2013-01-06 18:53:00,50.0,-99.9,30.22,North,8,16.0,17.0,-999,-99.99,,,-99.99,,2013-01-07 00:53:00,
2013-01-06 19:03:00,50.0,-99.9,30.22,North,4,16.0,19.0,-999,-99.99,,,-99.99,,2013-01-07 01:03:00,
2013-01-06 19:12:00,50.0,-99.9,30.22,North,8,17.0,19.0,-999,-99.99,,,-99.99,,2013-01-07 01:12:00,
2013-01-06 19:23:00,50.0,-99.9,30.23,NNE,13,17.0,19.0,-999,-99.99,,,-99.99,,2013-01-07 01:23:00,
2013-01-06 19:32:00,50.0,-99.9,30.23,NNE,15,19.0,22.0,-999,-99.99,,,-99.99,,2013-01-07 01:32:00,
2013-01-06 19:43:00,50.0,-99.9,30.24,NNE,15,19.0,21.0,-999,-99.99,,,-99.99,,2013-01-07 01:43:00,
2013-01-06 19:53:00,50.0,-99.9,30.24,NNE,15,18.0,20.0,-999,-99.99,,,-99.99,,2013-01-07 01:53:00,
2013-01-06 20:02:00,50.0,-99.9,30.24,NNE,17,17.0,21.0,-999,-99.99,,,-99.99,,2013-01-07 02:02:00,
2013-01-06 20:12:00,50.0,-99.9,30.25,NNE,15,18.0,19.0,-999,-99.99,,,-99.99,,2013-01-07 02:12:00,
2013-01-06 20:23:00,50.0,-99.9,30.25,NNE,15,15.0,17.0,-999,-99.99,,,-99.99,,2013-01-07 02:23:00,
2013-01-06 20:33:00,50.0,-99.9,30.25,NNE,20,16.0,18.0,-999,-99.99,,,-99.99,,2013-01-07 02:33:00,
2013-01-06 20:43:00,50.0,-99.9,30.25,NNE,18,16.0,17.0,-999,-99.99,,,-99.99,,2013-01-07 02:43:00,
2013-01-06 20:53:00,50.0,-99.9,30.25,NNE,15,18.0,21.0,-999,-99.99,,,-99.99,,2013-01-07 02:53:00,
2013-01-06 21:03:00,50.0,-99.9,30.25,NNE,18,17.0,19.0,-999,-99.99,,,-99.99,,2013-01-07 03:03:00,
2013-01-06 21:12:00,50.0,-99.9,30.26,NNE,15,17.0,19.0,-999,-99.99,,,-99.99,,2013-01-07 03:12:00,
2013-01-06 21:23:00,50.0,-99.9,30.25,NNE,25,18.0,20.0,-999,-99.99,,,-99.99,,2013-01-07 03:23:00,
2013-01-06 21:33:00,50.0,-99.9,30.24,NNE,28,16.0,18.0,-999,-99.99,,,-99.99,,2013-01-07 03:33:00,
2013-01-06 21:43:00,50.0,-99.9,30.24,NNE,29,17.0,19.0,-999,-99.99,,,-99.99,,2013-01-07 03:43:00,
2013-01-06 21:53:00,50.0,-99.9,30.25,NNE,21,18.0,19.0,-999,-99.99,,,-99.99,,2013-01-07 03:53:00,
2013-01-06 22:02:00,50.0,-99.9,30.26,North,-999,-999.0,-999.0,-999,-99.99,,,-99.99,,2013-01-07 04:02:00,
2013-01-06 22:13:00,50.0,-99.9,30.26,NNE,18,16.0,18.0,-999,-99.99,,,-99.99,,2013-01-07 04:13:00,
2013-01-06 22:22:00,49.0,-99.9,30.25,NNE,17,18.0,20.0,-999,-99.99,,,-99.99,,2013-01-07 04:22:00,
2013-01-06 22:33:00,49.0,-99.9,30.24,NNE,22,18.0,20.0,-999,-99.99,,,-99.99,,2013-01-07 04:33:00,
2013-01-06 22:42:00,49.0,-99.9,30.25,NNE,24,18.0,20.0,-999,-99.99,,,-99.99,,2013-01-07 04:42:00,
2013-01-06 22:53:00,49.0,-99.9,30.25,NNE,24,18.0,20.0,-999,-99.99,,,-99.99,,2013-01-07 04:53:00,
2013-01-06 23:03:00,49.0,-99.9,30.25,NNE,24,19.0,21.0,-999,-99.99,,,-99.99,,2013-01-07 05:03:00,
2013-01-06 23:12:00,49.0,-99.9,30.25,NNE,25,19.0,22.0,-999,-99.99,,,-99.99,,2013-01-07 05:12:00,
2013-01-06 23:22:00,49.0,-99.9,30.25,NNE,24,18.0,20.0,-999,-99.99,,,-99.99,,2013-01-07 05:22:00,
2013-01-06 23:33:00,49.0,-99.9,30.25,NNE,26,20.0,21.0,-999,-99.99,,,-99.99,,2013-01-07 05:33:00,
2013-01-06 23:43:00,49.0,-99.9,30.25,NNE,27,21.0,24.0,-999,-99.99,,,-99.99,,2013-01-07 05:43:00,
2013-01-06 23:53:00,49.0,-99.9,30.26,NE,35,19.0,23.0,-999,-99.99,,,-99.99,,2013-01-07 05:53:00,